sensor_id;sensor_type;location;lat;lon;timestamp;pressure;altitude;pressure_sealevel;temperature;humidity
35888;BME280;21990;42.540;23.496;2022-11-20T00:01:13;92898.78;;;9.80;99.92
35888;BME280;21990;42.540;23.496;2022-11-20T00:03:39;92887.63;;;9.87;99.07
35888;BME280;21990;42.540;23.496;2022-11-20T00:06:09;92865.78;;;9.80;99.57
35888;BME280;21990;42.540;23.496;2022-11-20T00:08:34;92880.50;;;9.73;100.00
35888;BME280;21990;42.540;23.496;2022-11-20T00:11:08;92879.44;;;9.76;100.00
35888;BME280;21990;42.540;23.496;2022-11-20T00:13:34;92877.66;;;9.86;100.00
35888;BME280;21990;42.540;23.496;2022-11-20T00:16:01;92864.09;;;9.98;100.00
35888;BME280;21990;42.540;23.496;2022-11-20T00:18:27;92871.66;;;10.03;100.00
35888;BME280;21990;42.540;23.496;2022-11-20T00:20:53;92887.88;;;10.10;100.00
35888;BME280;21990;42.540;23.496;2022-11-20T00:23:19;92857.78;;;10.18;100.00
35888;BME280;21990;42.540;23.496;2022-11-20T00:25:45;92852.00;;;10.24;100.00
35888;BME280;21990;42.540;23.496;2022-11-20T00:28:11;92847.19;;;10.32;100.00
35888;BME280;21990;42.540;23.496;2022-11-20T00:30:36;92841.84;;;10.41;100.00
35888;BME280;21990;42.540;23.496;2022-11-20T00:33:02;92831.19;;;10.47;100.00
35888;BME280;21990;42.540;23.496;2022-11-20T00:35:27;92830.78;;;10.64;100.00
35888;BME280;21990;42.540;23.496;2022-11-20T00:37:53;92843.63;;;10.73;100.00
35888;BME280;21990;42.540;23.496;2022-11-20T00:40:18;92840.13;;;10.80;100.00
35888;BME280;21990;42.540;23.496;2022-11-20T00:42:44;92821.69;;;10.79;100.00
35888;BME280;21990;42.540;23.496;2022-11-20T00:45:09;92832.81;;;10.84;100.00
35888;BME280;21990;42.540;23.496;2022-11-20T00:47:35;92817.97;;;10.84;100.00
35888;BME280;21990;42.540;23.496;2022-11-20T00:50:00;92829.09;;;10.89;100.00
35888;BME280;21990;42.540;23.496;2022-11-20T00:52:26;92826.66;;;10.93;100.00
35888;BME280;21990;42.540;23.496;2022-11-20T00:54:51;92834.03;;;10.97;100.00
35888;BME280;21990;42.540;23.496;2022-11-20T00:57:17;92818.47;;;11.03;100.00
35888;BME280;21990;42.540;23.496;2022-11-20T00:59:42;92821.94;;;11.17;100.00
35888;BME280;21990;42.540;23.496;2022-11-20T01:02:08;92833.06;;;11.22;100.00
35888;BME280;21990;42.540;23.496;2022-11-20T01:04:33;92828.41;;;11.32;100.00
35888;BME280;21990;42.540;23.496;2022-11-20T01:06:59;92853.84;;;11.40;100.00
35888;BME280;21990;42.540;23.496;2022-11-20T01:09:24;92843.34;;;11.48;100.00
35888;BME280;21990;42.540;23.496;2022-11-20T01:11:52;92847.28;;;11.45;100.00
35888;BME280;21990;42.540;23.496;2022-11-20T01:14:19;92844.09;;;11.49;100.00
35888;BME280;21990;42.540;23.496;2022-11-20T01:16:50;92847.28;;;11.45;100.00
35888;BME280;21990;42.540;23.496;2022-11-20T01:19:22;92845.81;;;11.52;100.00
35888;BME280;21990;42.540;23.496;2022-11-20T01:21:51;92829.09;;;11.54;100.00
35888;BME280;21990;42.540;23.496;2022-11-20T01:24:18;92823.25;;;11.52;100.00
35888;BME280;21990;42.540;23.496;2022-11-20T01:26:46;92835.91;;;11.58;100.00
35888;BME280;21990;42.540;23.496;2022-11-20T01:29:30;92816.31;;;11.53;100.00
35888;BME280;21990;42.540;23.496;2022-11-20T01:31:55;92818.19;;;11.50;100.00
35888;BME280;21990;42.540;23.496;2022-11-20T01:34:21;92822.13;;;11.47;100.00
35888;BME280;21990;42.540;23.496;2022-11-20T01:36:48;92811.53;;;11.40;100.00
35888;BME280;21990;42.540;23.496;2022-11-20T01:39:16;92809.81;;;11.37;100.00
35888;BME280;21990;42.540;23.496;2022-11-20T01:41:42;92783.94;;;11.46;100.00
35888;BME280;21990;42.540;23.496;2022-11-20T01:44:47;92767.56;;;11.44;99.98
35888;BME280;21990;42.540;23.496;2022-11-20T01:47:17;92776.22;;;11.47;99.91
35888;BME280;21990;42.540;23.496;2022-11-20T01:50:22;92774.34;;;11.49;99.62
35888;BME280;21990;42.540;23.496;2022-11-20T01:52:51;92765.13;;;11.49;98.77
35888;BME280;21990;42.540;23.496;2022-11-20T01:55:33;92781.25;;;11.40;98.45
35888;BME280;21990;42.540;23.496;2022-11-20T01:58:01;92781.47;;;11.42;98.47
35888;BME280;21990;42.540;23.496;2022-11-20T02:00:27;92780.28;;;11.30;98.02
35888;BME280;21990;42.540;23.496;2022-11-20T02:02:57;92781.78;;;11.24;97.92
35888;BME280;21990;42.540;23.496;2022-11-20T02:05:38;92776.88;;;11.24;97.87
35888;BME280;21990;42.540;23.496;2022-11-20T02:08:06;92764.06;;;11.16;98.09
35888;BME280;21990;42.540;23.496;2022-11-20T02:10:32;92765.34;;;11.15;97.27
35888;BME280;21990;42.540;23.496;2022-11-20T02:12:58;92769.69;;;11.16;97.23
35888;BME280;21990;42.540;23.496;2022-11-20T02:15:42;92777.53;;;11.10;97.71
35888;BME280;21990;42.540;23.496;2022-11-20T02:18:09;92798.00;;;11.03;97.46
35888;BME280;21990;42.540;23.496;2022-11-20T02:20:35;92781.03;;;10.95;97.42
35888;BME280;21990;42.540;23.496;2022-11-20T02:23:08;92796.19;;;10.84;98.21
35888;BME280;21990;42.540;23.496;2022-11-20T02:25:38;92793.50;;;10.79;99.10
35888;BME280;21990;42.540;23.496;2022-11-20T02:28:05;92795.09;;;10.67;98.88
35888;BME280;21990;42.540;23.496;2022-11-20T02:30:31;92806.03;;;10.70;99.52
35888;BME280;21990;42.540;23.496;2022-11-20T02:32:57;92788.38;;;10.70;100.00
35888;BME280;21990;42.540;23.496;2022-11-20T02:37:51;92792.69;;;10.71;100.00
35888;BME280;21990;42.540;23.496;2022-11-20T02:40:18;92795.50;;;10.71;98.62
35888;BME280;21990;42.540;23.496;2022-11-20T02:42:44;92800.97;;;10.69;100.00
35888;BME280;21990;42.540;23.496;2022-11-20T02:45:10;92797.53;;;10.63;100.00
35888;BME280;21990;42.540;23.496;2022-11-20T02:47:36;92809.41;;;10.69;100.00
35888;BME280;21990;42.540;23.496;2022-11-20T02:50:02;92805.69;;;10.74;100.00
35888;BME280;21990;42.540;23.496;2022-11-20T02:52:28;92810.97;;;10.77;99.66
35888;BME280;21990;42.540;23.496;2022-11-20T02:54:53;92810.94;;;10.70;99.79
35888;BME280;21990;42.540;23.496;2022-11-20T02:57:19;92798.84;;;10.62;100.00
35888;BME280;21990;42.540;23.496;2022-11-20T02:59:44;92816.28;;;10.60;100.00
35888;BME280;21990;42.540;23.496;2022-11-20T03:02:10;92821.50;;;10.56;100.00
35888;BME280;21990;42.540;23.496;2022-11-20T03:04:35;92819.66;;;10.59;100.00
35888;BME280;21990;42.540;23.496;2022-11-20T03:07:01;92819.03;;;10.73;98.81
35888;BME280;21990;42.540;23.496;2022-11-20T03:09:26;92820.56;;;10.82;99.71
35888;BME280;21990;42.540;23.496;2022-11-20T03:11:52;92826.06;;;10.87;98.80
35888;BME280;21990;42.540;23.496;2022-11-20T03:14:17;92813.19;;;11.28;91.47
35888;BME280;21990;42.540;23.496;2022-11-20T03:16:43;92827.22;;;11.56;93.83
35888;BME280;21990;42.540;23.496;2022-11-20T03:19:11;92807.72;;;11.66;91.50
35888;BME280;21990;42.540;23.496;2022-11-20T03:21:37;92826.22;;;11.74;90.57
35888;BME280;21990;42.540;23.496;2022-11-20T03:24:03;92817.44;;;11.93;89.40
35888;BME280;21990;42.540;23.496;2022-11-20T03:26:28;92818.22;;;12.09;89.02
35888;BME280;21990;42.540;23.496;2022-11-20T03:28:59;92814.13;;;12.25;86.97
35888;BME280;21990;42.540;23.496;2022-11-20T03:31:36;92826.00;;;12.54;87.15
35888;BME280;21990;42.540;23.496;2022-11-20T03:34:03;92825.09;;;12.59;87.11
35888;BME280;21990;42.540;23.496;2022-11-20T03:36:29;92829.97;;;12.58;87.18
35888;BME280;21990;42.540;23.496;2022-11-20T03:38:56;92836.38;;;12.59;87.40
35888;BME280;21990;42.540;23.496;2022-11-20T03:41:24;92829.97;;;12.58;87.36
35888;BME280;21990;42.540;23.496;2022-11-20T03:43:52;92837.16;;;12.59;87.43
35888;BME280;21990;42.540;23.496;2022-11-20T03:46:19;92856.16;;;12.51;87.88
35888;BME280;21990;42.540;23.496;2022-11-20T03:48:44;92848.06;;;12.40;88.22
35888;BME280;21990;42.540;23.496;2022-11-20T03:53:42;92842.41;;;12.40;88.24
35888;BME280;21990;42.540;23.496;2022-11-20T03:56:09;92834.69;;;12.41;88.85
35888;BME280;21990;42.540;23.496;2022-11-20T03:58:36;92836.38;;;12.44;88.44
35888;BME280;21990;42.540;23.496;2022-11-20T04:01:17;92837.31;;;12.46;88.47
35888;BME280;21990;42.540;23.496;2022-11-20T04:03:44;92839.38;;;12.38;88.78
35888;BME280;21990;42.540;23.496;2022-11-20T04:06:16;92830.13;;;12.37;89.73
35888;BME280;21990;42.540;23.496;2022-11-20T04:08:42;92828.06;;;12.30;89.79
35888;BME280;21990;42.540;23.496;2022-11-20T04:11:12;92837.66;;;12.35;90.00
35888;BME280;21990;42.540;23.496;2022-11-20T04:13:38;92834.66;;;12.33;89.88
35888;BME280;21990;42.540;23.496;2022-11-20T04:16:05;92835.41;;;12.33;89.56
35888;BME280;21990;42.540;23.496;2022-11-20T04:18:31;92834.09;;;12.34;89.46
35888;BME280;21990;42.540;23.496;2022-11-20T04:20:58;92839.16;;;12.21;89.74
35888;BME280;21990;42.540;23.496;2022-11-20T04:23:24;92841.53;;;11.94;91.67
35888;BME280;21990;42.540;23.496;2022-11-20T04:25:49;92852.28;;;12.03;91.68
35888;BME280;21990;42.540;23.496;2022-11-20T04:28:15;92853.03;;;12.04;91.47
35888;BME280;21990;42.540;23.496;2022-11-20T04:30:41;92862.63;;;12.01;92.11
35888;BME280;21990;42.540;23.496;2022-11-20T04:33:06;92860.97;;;12.13;91.65
35888;BME280;21990;42.540;23.496;2022-11-20T04:35:35;92864.19;;;12.17;91.17
35888;BME280;21990;42.540;23.496;2022-11-20T04:38:01;92858.94;;;12.21;91.00
35888;BME280;21990;42.540;23.496;2022-11-20T04:40:28;92867.22;;;12.26;90.81
35888;BME280;21990;42.540;23.496;2022-11-20T04:42:54;92872.69;;;12.32;90.81
35888;BME280;21990;42.540;23.496;2022-11-20T04:45:20;92862.53;;;12.36;90.71
35888;BME280;21990;42.540;23.496;2022-11-20T04:47:46;92855.75;;;12.40;90.07
35888;BME280;21990;42.540;23.496;2022-11-20T04:50:11;92862.56;;;12.44;89.95
35888;BME280;21990;42.540;23.496;2022-11-20T04:52:37;92863.09;;;12.35;90.41
35888;BME280;21990;42.540;23.496;2022-11-20T04:55:03;92866.53;;;12.41;90.82
35888;BME280;21990;42.540;23.496;2022-11-20T04:57:28;92855.78;;;12.47;90.16
35888;BME280;21990;42.540;23.496;2022-11-20T04:59:54;92869.91;;;12.47;90.92
35888;BME280;21990;42.540;23.496;2022-11-20T05:02:23;92864.63;;;12.51;90.29
35888;BME280;21990;42.540;23.496;2022-11-20T05:04:48;92870.69;;;12.55;90.63
35888;BME280;21990;42.540;23.496;2022-11-20T05:07:14;92875.41;;;12.53;91.39
35888;BME280;21990;42.540;23.496;2022-11-20T05:09:40;92875.41;;;12.68;90.07
35888;BME280;21990;42.540;23.496;2022-11-20T05:12:07;92873.34;;;12.76;90.00
35888;BME280;21990;42.540;23.496;2022-11-20T05:14:33;92887.50;;;12.83;90.27
35888;BME280;21990;42.540;23.496;2022-11-20T05:16:58;92897.84;;;12.89;89.84
35888;BME280;21990;42.540;23.496;2022-11-20T05:19:24;92905.00;;;12.97;91.30
35888;BME280;21990;42.540;23.496;2022-11-20T05:21:49;92898.44;;;13.02;91.75
35888;BME280;21990;42.540;23.496;2022-11-20T05:24:15;92891.09;;;12.92;92.65
35888;BME280;21990;42.540;23.496;2022-11-20T05:26:40;92892.78;;;12.95;94.03
35888;BME280;21990;42.540;23.496;2022-11-20T05:29:06;92888.97;;;13.00;93.70
35888;BME280;21990;42.540;23.496;2022-11-20T05:31:32;92894.63;;;13.00;94.08
35888;BME280;21990;42.540;23.496;2022-11-20T05:33:57;92892.19;;;13.04;95.35
35888;BME280;21990;42.540;23.496;2022-11-20T05:36:23;92902.56;;;12.86;97.19
35888;BME280;21990;42.540;23.496;2022-11-20T05:38:49;92881.63;;;12.89;100.00
35888;BME280;21990;42.540;23.496;2022-11-20T05:41:16;92882.94;;;12.96;100.00
35888;BME280;21990;42.540;23.496;2022-11-20T05:43:46;92888.03;;;12.90;100.00
35888;BME280;21990;42.540;23.496;2022-11-20T05:46:14;92898.44;;;12.95;100.00
35888;BME280;21990;42.540;23.496;2022-11-20T05:48:41;92890.50;;;12.93;100.00
35888;BME280;21990;42.540;23.496;2022-11-20T05:51:10;92889.34;;;12.89;100.00
35888;BME280;21990;42.540;23.496;2022-11-20T05:53:36;92887.88;;;12.88;99.74
35888;BME280;21990;42.540;23.496;2022-11-20T05:56:08;92880.69;;;12.87;99.56
35888;BME280;21990;42.540;23.496;2022-11-20T05:58:38;92881.47;;;12.87;99.82
35888;BME280;21990;42.540;23.496;2022-11-20T06:01:23;92890.13;;;12.81;100.00
35888;BME280;21990;42.540;23.496;2022-11-20T06:03:50;92894.81;;;12.79;100.00
35888;BME280;21990;42.540;23.496;2022-11-20T06:06:17;92895.00;;;12.66;100.00
35888;BME280;21990;42.540;23.496;2022-11-20T06:08:46;92879.72;;;12.76;100.00
35888;BME280;21990;42.540;23.496;2022-11-20T06:11:13;92875.97;;;12.81;100.00
35888;BME280;21990;42.540;23.496;2022-11-20T06:13:39;92871.47;;;12.86;100.00
35888;BME280;21990;42.540;23.496;2022-11-20T06:16:05;92867.69;;;12.91;100.00
35888;BME280;21990;42.540;23.496;2022-11-20T06:18:31;92865.63;;;12.92;100.00
35888;BME280;21990;42.540;23.496;2022-11-20T06:21:15;92873.72;;;12.95;100.00
35888;BME280;21990;42.540;23.496;2022-11-20T06:23:41;92867.13;;;12.85;100.00
35888;BME280;21990;42.540;23.496;2022-11-20T06:26:09;92872.22;;;12.94;100.00
35888;BME280;21990;42.540;23.496;2022-11-20T06:28:38;92883.53;;;13.02;100.00
35888;BME280;21990;42.540;23.496;2022-11-20T06:31:04;92886.34;;;13.09;100.00
35888;BME280;21990;42.540;23.496;2022-11-20T06:33:30;92880.34;;;13.13;100.00
35888;BME280;21990;42.540;23.496;2022-11-20T06:35:57;92880.31;;;13.05;100.00
35888;BME280;21990;42.540;23.496;2022-11-20T06:38:26;92885.84;;;13.11;100.00
35888;BME280;21990;42.540;23.496;2022-11-20T06:40:52;92878.28;;;13.13;100.00
35888;BME280;21990;42.540;23.496;2022-11-20T06:43:18;92873.56;;;13.16;100.00
35888;BME280;21990;42.540;23.496;2022-11-20T06:45:52;92877.53;;;13.13;100.00
35888;BME280;21990;42.540;23.496;2022-11-20T06:48:18;92877.91;;;13.17;100.00
35888;BME280;21990;42.540;23.496;2022-11-20T06:50:43;92869.63;;;13.19;100.00
35888;BME280;21990;42.540;23.496;2022-11-20T06:53:09;92875.81;;;13.17;100.00
35888;BME280;21990;42.540;23.496;2022-11-20T06:55:34;92868.66;;;13.16;100.00
35888;BME280;21990;42.540;23.496;2022-11-20T06:58:00;92874.69;;;13.20;100.00
35888;BME280;21990;42.540;23.496;2022-11-20T07:00:25;92877.34;;;13.26;100.00
35888;BME280;21990;42.540;23.496;2022-11-20T07:02:51;92881.09;;;13.28;100.00
35888;BME280;21990;42.540;23.496;2022-11-20T07:05:17;92898.28;;;13.30;100.00
35888;BME280;21990;42.540;23.496;2022-11-20T07:07:43;92896.53;;;13.35;100.00
35888;BME280;21990;42.540;23.496;2022-11-20T07:10:09;92890.91;;;13.27;100.00
35888;BME280;21990;42.540;23.496;2022-11-20T07:12:35;92899.75;;;13.39;100.00
35888;BME280;21990;42.540;23.496;2022-11-20T07:15:01;92885.03;;;13.48;100.00
35888;BME280;21990;42.540;23.496;2022-11-20T07:17:26;92888.41;;;13.54;100.00
35888;BME280;21990;42.540;23.496;2022-11-20T07:19:52;92889.16;;;13.62;100.00
35888;BME280;21990;42.540;23.496;2022-11-20T07:22:17;92900.47;;;13.55;100.00
35888;BME280;21990;42.540;23.496;2022-11-20T07:24:43;92898.03;;;13.51;100.00
35888;BME280;21990;42.540;23.496;2022-11-20T07:27:08;92905.56;;;13.64;100.00
35888;BME280;21990;42.540;23.496;2022-11-20T07:29:34;92889.50;;;13.74;100.00
35888;BME280;21990;42.540;23.496;2022-11-20T07:31:59;92896.28;;;13.78;100.00
35888;BME280;21990;42.540;23.496;2022-11-20T07:34:25;92892.47;;;13.91;100.00
35888;BME280;21990;42.540;23.496;2022-11-20T07:36:50;92899.25;;;14.03;100.00
35888;BME280;21990;42.540;23.496;2022-11-20T07:39:16;92895.63;;;14.10;100.00
35888;BME280;21990;42.540;23.496;2022-11-20T07:41:42;92886.69;;;14.21;99.01
35888;BME280;21990;42.540;23.496;2022-11-20T07:44:07;92895.75;;;14.35;98.30
35888;BME280;21990;42.540;23.496;2022-11-20T07:46:33;92893.41;;;14.49;95.54
35888;BME280;21990;42.540;23.496;2022-11-20T07:48:58;92893.75;;;14.53;90.89
35888;BME280;21990;42.540;23.496;2022-11-20T07:51:24;92902.56;;;14.64;88.63
35888;BME280;21990;42.540;23.496;2022-11-20T07:53:52;92896.63;;;14.78;88.96
35888;BME280;21990;42.540;23.496;2022-11-20T07:56:17;92906.41;;;14.84;88.05
35888;BME280;21990;42.540;23.496;2022-11-20T07:58:43;92898.00;;;15.01;87.55
35888;BME280;21990;42.540;23.496;2022-11-20T08:01:08;92898.28;;;15.13;87.42
35888;BME280;21990;42.540;23.496;2022-11-20T08:03:34;92912.53;;;15.05;86.00
35888;BME280;21990;42.540;23.496;2022-11-20T08:06:00;92919.97;;;15.18;85.74
35888;BME280;21990;42.540;23.496;2022-11-20T08:08:27;92904.06;;;15.23;85.25
35888;BME280;21990;42.540;23.496;2022-11-20T08:10:52;92909.16;;;15.24;84.39
35888;BME280;21990;42.540;23.496;2022-11-20T08:13:38;92898.72;;;15.27;84.18
35888;BME280;21990;42.540;23.496;2022-11-20T08:16:22;92886.16;;;15.37;84.34
35888;BME280;21990;42.540;23.496;2022-11-20T08:18:47;92883.09;;;15.43;85.28
35888;BME280;21990;42.540;23.496;2022-11-20T08:21:13;92894.44;;;15.43;84.92
35888;BME280;21990;42.540;23.496;2022-11-20T08:23:38;92881.81;;;15.36;84.36
35888;BME280;21990;42.540;23.496;2022-11-20T08:26:04;92885.91;;;15.43;83.82
35888;BME280;21990;42.540;23.496;2022-11-20T08:28:29;92880.66;;;15.39;84.15
35888;BME280;21990;42.540;23.496;2022-11-20T08:31:01;92886.69;;;15.43;83.29
35888;BME280;21990;42.540;23.496;2022-11-20T08:33:27;92887.44;;;15.44;82.70
35888;BME280;21990;42.540;23.496;2022-11-20T08:35:53;92878.03;;;15.58;81.98
35888;BME280;21990;42.540;23.496;2022-11-20T08:38:18;92891.00;;;15.69;80.78
35888;BME280;21990;42.540;23.496;2022-11-20T08:40:44;92893.19;;;15.78;79.42
35888;BME280;21990;42.540;23.496;2022-11-20T08:43:29;92896.88;;;15.88;79.49
35888;BME280;21990;42.540;23.496;2022-11-20T08:45:56;92892.13;;;15.91;79.65
35888;BME280;21990;42.540;23.496;2022-11-20T08:48:22;92902.13;;;15.92;79.77
35888;BME280;21990;42.540;23.496;2022-11-20T08:50:48;92901.38;;;15.91;78.35
35888;BME280;21990;42.540;23.496;2022-11-20T08:53:13;92910.06;;;15.93;78.67
35888;BME280;21990;42.540;23.496;2022-11-20T08:55:39;92909.09;;;15.98;78.16
35888;BME280;21990;42.540;23.496;2022-11-20T08:58:05;92908.31;;;15.98;77.51
35888;BME280;21990;42.540;23.496;2022-11-20T09:00:32;92917.19;;;16.02;79.50
35888;BME280;21990;42.540;23.496;2022-11-20T09:02:58;92925.78;;;16.11;81.42
35888;BME280;21990;42.540;23.496;2022-11-20T09:05:27;92918.00;;;16.12;82.89
35888;BME280;21990;42.540;23.496;2022-11-20T09:07:56;92922.28;;;16.03;82.73
35888;BME280;21990;42.540;23.496;2022-11-20T09:10:22;92921.59;;;15.95;81.25
35888;BME280;21990;42.540;23.496;2022-11-20T09:12:52;92926.69;;;15.80;85.35
35888;BME280;21990;42.540;23.496;2022-11-20T09:15:18;92922.69;;;15.83;83.58
35888;BME280;21990;42.540;23.496;2022-11-20T09:17:53;92917.28;;;15.94;82.32
35888;BME280;21990;42.540;23.496;2022-11-20T09:20:20;92927.94;;;16.03;82.18
35888;BME280;21990;42.540;23.496;2022-11-20T09:22:45;92936.00;;;16.14;85.23
35888;BME280;21990;42.540;23.496;2022-11-20T09:25:11;92923.69;;;16.12;85.52
35888;BME280;21990;42.540;23.496;2022-11-20T09:27:37;92922.00;;;15.92;88.75
35888;BME280;21990;42.540;23.496;2022-11-20T09:30:03;92930.13;;;15.95;90.04
35888;BME280;21990;42.540;23.496;2022-11-20T09:32:29;92925.13;;;16.03;90.95
35888;BME280;21990;42.540;23.496;2022-11-20T09:34:54;92926.38;;;15.93;89.20
35888;BME280;21990;42.540;23.496;2022-11-20T09:37:20;92923.44;;;15.83;87.22
35888;BME280;21990;42.540;23.496;2022-11-20T09:39:49;92910.22;;;15.78;85.86
35888;BME280;21990;42.540;23.496;2022-11-20T09:48:02;92892.13;;;15.91;86.99
35888;BME280;21990;42.540;23.496;2022-11-20T09:50:52;92902.31;;;15.94;81.87
35888;BME280;21990;42.540;23.496;2022-11-20T09:55:50;92906.66;;;15.95;84.67
35888;BME280;21990;42.540;23.496;2022-11-20T09:58:29;92887.50;;;15.95;83.78
35888;BME280;21990;42.540;23.496;2022-11-20T10:01:07;92891.09;;;15.96;84.70
35888;BME280;21990;42.540;23.496;2022-11-20T10:06:23;92891.63;;;16.02;85.53
35888;BME280;21990;42.540;23.496;2022-11-20T10:15:21;92871.22;;;16.13;89.56
35888;BME280;21990;42.540;23.496;2022-11-20T10:20:40;92839.84;;;16.21;86.52
35888;BME280;21990;42.540;23.496;2022-11-20T10:23:29;92850.38;;;16.28;84.69
35888;BME280;21990;42.540;23.496;2022-11-20T10:26:03;92849.38;;;16.15;83.79
35888;BME280;21990;42.540;23.496;2022-11-20T10:31:34;92825.53;;;16.28;83.50
35888;BME280;21990;42.540;23.496;2022-11-20T10:34:07;92827.53;;;16.35;83.99
35888;BME280;21990;42.540;23.496;2022-11-20T10:36:59;92828.19;;;16.43;83.45
35888;BME280;21990;42.540;23.496;2022-11-20T10:40:11;92826.31;;;16.55;82.98
35888;BME280;21990;42.540;23.496;2022-11-20T10:42:44;92840.78;;;16.67;82.86
35888;BME280;21990;42.540;23.496;2022-11-20T10:47:51;92827.09;;;16.83;81.39
35888;BME280;21990;42.540;23.496;2022-11-20T10:50:20;92827.41;;;16.87;81.63
35888;BME280;21990;42.540;23.496;2022-11-20T10:53:57;92830.28;;;16.96;81.29
35888;BME280;21990;42.540;23.496;2022-11-20T10:56:02;92849.94;;;17.02;79.99
35888;BME280;21990;42.540;23.496;2022-11-20T10:59:02;92844.09;;;16.73;78.96
35888;BME280;21990;42.540;23.496;2022-11-20T11:01:29;92836.78;;;16.53;79.11
35888;BME280;21990;42.540;23.496;2022-11-20T11:03:55;92836.28;;;16.47;80.00
35888;BME280;21990;42.540;23.496;2022-11-20T11:06:32;92840.72;;;16.57;80.16
35888;BME280;21990;42.540;23.496;2022-11-20T11:09:02;92840.19;;;16.69;80.55
35888;BME280;21990;42.540;23.496;2022-11-20T11:11:32;92834.66;;;16.71;80.62
35888;BME280;21990;42.540;23.496;2022-11-20T11:14:09;92840.66;;;16.75;80.04
35888;BME280;21990;42.540;23.496;2022-11-20T11:16:35;92851.94;;;16.82;80.14
35888;BME280;21990;42.540;23.496;2022-11-20T11:19:27;92861.38;;;16.85;80.16
35888;BME280;21990;42.540;23.496;2022-11-20T11:21:56;92862.88;;;16.86;80.12
35888;BME280;21990;42.540;23.496;2022-11-20T11:24:27;92867.38;;;16.89;80.01
35888;BME280;21990;42.540;23.496;2022-11-20T11:26:57;92864.31;;;16.77;79.85
35888;BME280;21990;42.540;23.496;2022-11-20T11:29:24;92874.75;;;16.65;79.53
35888;BME280;21990;42.540;23.496;2022-11-20T11:32:06;92878.50;;;16.68;79.76
35888;BME280;21990;42.540;23.496;2022-11-20T11:34:33;92885.38;;;16.65;79.92
35888;BME280;21990;42.540;23.496;2022-11-20T11:37:00;92893.06;;;16.72;82.66
35888;BME280;21990;42.540;23.496;2022-11-20T11:39:29;92914.47;;;16.73;84.24
35888;BME280;21990;42.540;23.496;2022-11-20T11:41:57;92940.66;;;16.71;86.57
35888;BME280;21990;42.540;23.496;2022-11-20T11:44:30;92956.97;;;16.36;88.63
35888;BME280;21990;42.540;23.496;2022-11-20T11:47:47;92976.38;;;15.71;82.61
35888;BME280;21990;42.540;23.496;2022-11-20T11:55:40;92926.00;;;14.97;85.09
35888;BME280;21990;42.540;23.496;2022-11-20T12:09:57;92922.97;;;14.63;91.48
35888;BME280;21990;42.540;23.496;2022-11-20T12:12:36;92916.38;;;14.60;92.01
35888;BME280;21990;42.540;23.496;2022-11-20T12:15:10;92921.53;;;14.54;91.97
35888;BME280;21990;42.540;23.496;2022-11-20T12:17:36;92933.03;;;14.56;91.73
35888;BME280;21990;42.540;23.496;2022-11-20T12:20:02;92927.38;;;14.56;91.69
35888;BME280;21990;42.540;23.496;2022-11-20T12:22:43;92922.75;;;14.28;91.16
35888;BME280;21990;42.540;23.496;2022-11-20T12:25:26;92907.84;;;14.20;91.38
35888;BME280;21990;42.540;23.496;2022-11-20T12:34:18;92952.44;;;14.12;90.57
35888;BME280;21990;42.540;23.496;2022-11-20T12:39:41;92930.69;;;13.52;90.18
35888;BME280;21990;42.540;23.496;2022-11-20T12:53:37;92862.81;;;13.14;98.77
35888;BME280;21990;42.540;23.496;2022-11-20T13:02:11;92841.81;;;13.48;100.00
35888;BME280;21990;42.540;23.496;2022-11-20T13:07:38;92826.69;;;13.60;99.42
35888;BME280;21990;42.540;23.496;2022-11-20T13:10:05;92839.56;;;13.46;99.81
35888;BME280;21990;42.540;23.496;2022-11-20T13:12:49;92829.38;;;13.43;100.00
35888;BME280;21990;42.540;23.496;2022-11-20T13:18:00;92832.56;;;13.55;99.87
35888;BME280;21990;42.540;23.496;2022-11-20T13:20:27;92820.88;;;13.51;99.52
35888;BME280;21990;42.540;23.496;2022-11-20T13:22:55;92819.97;;;13.33;99.92
35888;BME280;21990;42.540;23.496;2022-11-20T13:25:29;92816.97;;;13.16;100.00
35888;BME280;21990;42.540;23.496;2022-11-20T13:27:57;92816.97;;;13.16;100.00
35888;BME280;21990;42.540;23.496;2022-11-20T13:30:27;92820.38;;;13.22;100.00
35888;BME280;21990;42.540;23.496;2022-11-20T13:33:09;92822.81;;;13.25;99.86
35888;BME280;21990;42.540;23.496;2022-11-20T13:35:55;92849.41;;;13.30;98.01
35888;BME280;21990;42.540;23.496;2022-11-20T13:38:21;92844.28;;;13.44;98.67
35888;BME280;21990;42.540;23.496;2022-11-20T13:40:56;92852.38;;;13.55;98.67
35888;BME280;21990;42.540;23.496;2022-11-20T13:46:20;92855.19;;;13.55;99.63
35888;BME280;21990;42.540;23.496;2022-11-20T13:48:51;92849.91;;;13.59;100.00
35888;BME280;21990;42.540;23.496;2022-11-20T13:51:48;92847.81;;;13.67;100.00
35888;BME280;21990;42.540;23.496;2022-11-20T14:02:27;92841.00;;;13.70;98.88
35888;BME280;21990;42.540;23.496;2022-11-20T14:04:57;92843.28;;;13.71;98.39
35888;BME280;21990;42.540;23.496;2022-11-20T14:07:27;92833.81;;;13.76;98.45
35888;BME280;21990;42.540;23.496;2022-11-20T14:09:57;92828.16;;;13.76;99.00
35888;BME280;21990;42.540;23.496;2022-11-20T14:12:31;92834.81;;;13.64;98.70
35888;BME280;21990;42.540;23.496;2022-11-20T14:14:58;92821.03;;;13.60;98.80
35888;BME280;21990;42.540;23.496;2022-11-20T14:17:32;92817.09;;;13.56;99.94
35888;BME280;21990;42.540;23.496;2022-11-20T14:20:06;92825.19;;;13.59;99.34
35888;BME280;21990;42.540;23.496;2022-11-20T14:22:37;92824.66;;;13.53;99.87
35888;BME280;21990;42.540;23.496;2022-11-20T14:27:39;92805.25;;;13.42;100.00
35888;BME280;21990;42.540;23.496;2022-11-20T14:30:13;92824.13;;;13.32;100.00
35888;BME280;21990;42.540;23.496;2022-11-20T14:32:39;92816.94;;;13.39;100.00